createdAt,value
2022-12-17T00:01:20.197Z,-3.50
2022-12-17T00:04:08.199Z,-3.50
2022-12-17T00:06:54.214Z,-3.70
2022-12-17T00:09:48.596Z,-3.70
2022-12-17T00:12:37.850Z,-3.70
2022-12-17T00:15:23.756Z,-3.60
2022-12-17T00:18:10.259Z,-3.50
2022-12-17T00:20:55.929Z,-3.60
2022-12-17T00:23:56.296Z,-3.60
2022-12-17T00:26:42.392Z,-3.60
2022-12-17T00:29:28.316Z,-3.50
2022-12-17T00:32:13.831Z,-3.60
2022-12-17T00:34:59.959Z,-3.50
2022-12-17T00:37:45.546Z,-3.60
2022-12-17T00:40:31.649Z,-3.70
2022-12-17T00:43:26.265Z,-3.80
2022-12-17T00:46:12.476Z,-3.60
2022-12-17T00:48:59.191Z,-3.60
2022-12-17T00:51:45.258Z,-3.50
2022-12-17T00:54:31.475Z,-3.70
2022-12-17T00:57:17.189Z,-3.60
2022-12-17T01:00:22.230Z,-3.70
2022-12-17T01:03:09.239Z,-3.70
2022-12-17T01:05:54.688Z,-3.70
2022-12-17T01:08:44.729Z,-3.70
2022-12-17T01:11:30.548Z,-3.60
2022-12-17T01:14:16.153Z,-3.80
2022-12-17T01:17:04.074Z,-3.90
2022-12-17T01:19:49.637Z,-3.80
2022-12-17T01:22:35.001Z,-3.60
2022-12-17T01:25:21.058Z,-3.60
2022-12-17T01:28:08.208Z,-3.80
2022-12-17T01:30:57.036Z,-3.70
2022-12-17T01:33:46.204Z,-3.60
2022-12-17T01:36:31.733Z,-3.70
2022-12-17T01:39:17.071Z,-3.70
2022-12-17T01:42:04.169Z,-3.70
2022-12-17T01:45:06.984Z,-3.60
2022-12-17T01:48:12.535Z,-3.70
2022-12-17T01:51:01.638Z,-3.60
2022-12-17T01:53:53.586Z,-3.50
2022-12-17T01:56:40.392Z,-3.70
2022-12-17T01:59:28.059Z,-3.80
2022-12-17T02:02:13.837Z,-3.70
2022-12-17T02:05:00.029Z,-3.70
2022-12-17T02:08:26.313Z,-3.80
2022-12-17T02:11:40.924Z,-3.70
2022-12-17T02:14:40.678Z,-3.80
2022-12-17T02:17:30.137Z,-3.90
2022-12-17T02:20:34.478Z,-4.00
2022-12-17T02:23:48.689Z,-4.10
2022-12-17T02:26:41.163Z,-4.00
2022-12-17T02:29:27.336Z,-3.80
2022-12-17T02:32:13.239Z,-3.80
2022-12-17T02:35:03.894Z,-3.90
2022-12-17T02:37:49.541Z,-3.90
2022-12-17T02:40:37.780Z,-3.80
2022-12-17T02:43:24.681Z,-3.70
2022-12-17T02:46:09.950Z,-3.70
2022-12-17T02:48:55.941Z,-3.90
2022-12-17T02:51:42.551Z,-3.70
2022-12-17T02:54:27.878Z,-3.70
2022-12-17T02:57:13.346Z,-3.80
2022-12-17T02:59:58.693Z,-3.80
2022-12-17T03:02:44.430Z,-3.80
2022-12-17T03:05:45.149Z,-3.90
2022-12-17T03:08:31.580Z,-4.00
2022-12-17T03:11:17.305Z,-4.10
2022-12-17T03:14:03.209Z,-4.00
2022-12-17T03:16:48.884Z,-4.00
2022-12-17T03:19:34.448Z,-4.00
2022-12-17T03:22:19.719Z,-4.00
2022-12-17T03:25:05.227Z,-4.00
2022-12-17T03:27:50.796Z,-4.20
2022-12-17T03:30:38.551Z,-4.20
2022-12-17T03:33:27.294Z,-4.20
2022-12-17T03:36:13.478Z,-4.10
2022-12-17T03:38:59.184Z,-4.30
2022-12-17T03:41:45.555Z,-4.20
2022-12-17T03:44:31.189Z,-4.30
2022-12-17T03:47:16.808Z,-4.50
2022-12-17T03:50:06.610Z,-4.50
2022-12-17T03:52:52.386Z,-4.40
2022-12-17T03:55:37.919Z,-4.40
2022-12-17T03:58:24.593Z,-4.10
2022-12-17T04:01:10.456Z,-4.20
2022-12-17T04:03:55.841Z,-4.20
2022-12-17T04:06:41.711Z,-4.20
2022-12-17T04:09:27.021Z,-4.30
2022-12-17T04:12:12.457Z,-4.30
2022-12-17T04:14:58.194Z,-4.30
2022-12-17T04:17:43.472Z,-4.30
2022-12-17T04:20:29.343Z,-4.10
2022-12-17T04:23:14.915Z,-4.20
2022-12-17T04:26:00.367Z,-4.40
2022-12-17T04:28:45.940Z,-4.50
2022-12-17T04:31:31.597Z,-4.60
2022-12-17T04:34:17.432Z,-4.60
2022-12-17T04:37:03.513Z,-4.50
2022-12-17T04:39:49.363Z,-4.50
2022-12-17T04:42:34.656Z,-4.70
2022-12-17T04:45:20.131Z,-4.60
2022-12-17T04:48:05.560Z,-4.60
2022-12-17T04:50:50.872Z,-4.60
2022-12-17T04:53:36.763Z,-4.50
2022-12-17T04:56:22.713Z,-4.60
2022-12-17T04:59:08.214Z,-4.40
2022-12-17T05:01:53.732Z,-4.50
2022-12-17T05:04:39.173Z,-4.70
2022-12-17T05:07:24.508Z,-4.70
2022-12-17T05:10:10.009Z,-4.50
2022-12-17T05:12:55.540Z,-4.30
2022-12-17T05:15:45.184Z,-4.40
2022-12-17T05:18:33.725Z,-4.60
2022-12-17T05:21:19.052Z,-4.60
2022-12-17T05:24:04.713Z,-4.70
2022-12-17T05:26:49.972Z,-4.70
2022-12-17T05:29:35.283Z,-4.70
2022-12-17T05:32:20.630Z,-4.40
2022-12-17T05:35:06.097Z,-4.30
2022-12-17T05:37:51.713Z,-4.40
2022-12-17T05:40:36.748Z,-4.40
2022-12-17T05:43:24.840Z,-4.20
2022-12-17T05:46:10.963Z,-4.30
2022-12-17T05:48:56.631Z,-4.40
2022-12-17T05:51:42.395Z,-4.20
2022-12-17T05:54:28.025Z,-4.20
2022-12-17T05:57:13.680Z,-4.30
2022-12-17T05:59:59.498Z,-4.20
2022-12-17T06:02:44.900Z,-4.20
2022-12-17T06:05:32.887Z,-4.20
2022-12-17T06:08:25.717Z,-4.30
2022-12-17T06:11:11.703Z,-4.40
2022-12-17T06:13:57.922Z,-4.40
2022-12-17T06:16:43.499Z,-4.40
2022-12-17T06:19:29.022Z,-4.20
2022-12-17T06:22:14.396Z,-4.10
2022-12-17T06:24:59.758Z,-4.30
2022-12-17T06:27:45.032Z,-4.40
2022-12-17T06:30:30.656Z,-4.30
2022-12-17T06:33:28.064Z,-4.20
2022-12-17T06:36:21.960Z,-4.20
2022-12-17T06:39:09.049Z,-4.30
2022-12-17T06:42:02.203Z,-4.30
2022-12-17T06:44:49.288Z,-4.40
2022-12-17T06:47:34.910Z,-4.40
2022-12-17T06:50:20.150Z,-4.30
2022-12-17T06:53:05.787Z,-4.30
2022-12-17T06:55:51.318Z,-4.20
2022-12-17T06:58:36.866Z,-4.40
2022-12-17T07:01:22.660Z,-4.30
2022-12-17T07:04:08.272Z,-4.30
2022-12-17T07:06:53.877Z,-4.20
2022-12-17T07:09:39.410Z,-4.20
2022-12-17T07:12:25.137Z,-4.30
2022-12-17T07:15:10.506Z,-4.20
2022-12-17T07:17:56.023Z,-4.20
2022-12-17T07:20:41.370Z,-4.30
2022-12-17T07:23:27.390Z,-4.30
2022-12-17T07:26:12.782Z,-4.30
2022-12-17T07:28:58.342Z,-4.30
2022-12-17T07:31:43.609Z,-4.30
2022-12-17T07:38:07.278Z,-4.20
2022-12-17T07:43:55.301Z,-4.30
2022-12-17T07:46:47.910Z,-4.30
2022-12-17T07:49:34.693Z,-4.30
2022-12-17T07:52:29.175Z,-4.30
2022-12-17T07:55:22.137Z,-4.30
2022-12-17T07:58:16.722Z,-4.20
2022-12-17T08:01:03.201Z,-4.20
2022-12-17T08:03:52.023Z,-4.20
2022-12-17T08:06:40.884Z,-4.30
2022-12-17T08:09:26.020Z,-4.10
2022-12-17T08:12:11.444Z,-4.20
2022-12-17T08:14:56.869Z,-4.20
2022-12-17T08:17:42.373Z,-4.20
2022-12-17T08:20:28.775Z,-4.10
2022-12-17T08:23:22.014Z,-4.10
2022-12-17T08:26:07.538Z,-3.90
2022-12-17T08:28:53.389Z,-3.90
2022-12-17T08:31:39.059Z,-4.00
2022-12-17T08:34:24.580Z,-4.00
2022-12-17T08:37:10.146Z,-4.00
2022-12-17T08:39:56.591Z,-4.00
2022-12-17T08:42:42.008Z,-4.00
2022-12-17T08:45:27.933Z,-4.00
2022-12-17T08:48:21.439Z,-4.00
2022-12-17T08:51:07.207Z,-4.00
2022-12-17T08:53:52.617Z,-4.10
2022-12-17T08:56:38.145Z,-4.00
2022-12-17T08:59:24.343Z,-4.10
2022-12-17T09:02:11.638Z,-4.30
2022-12-17T09:04:58.472Z,-4.10
2022-12-17T09:07:52.491Z,-4.10
2022-12-17T09:10:40.209Z,-3.90
2022-12-17T09:13:25.546Z,-3.90
2022-12-17T09:16:14.008Z,-4.00
2022-12-17T09:19:00.437Z,-4.10
2022-12-17T09:21:48.104Z,-4.00
2022-12-17T09:24:33.843Z,-3.80
2022-12-17T09:27:19.564Z,-3.80
2022-12-17T09:30:05.043Z,-3.90
2022-12-17T09:32:50.456Z,-3.90
2022-12-17T09:35:36.216Z,-4.00
2022-12-17T09:38:22.023Z,-3.90
2022-12-17T09:41:20.581Z,-3.90
2022-12-17T09:48:25.857Z,-3.80
2022-12-17T09:51:14.727Z,-3.90
2022-12-17T09:54:22.897Z,-4.00
2022-12-17T09:57:09.918Z,-3.80
2022-12-17T09:59:55.409Z,-4.00
2022-12-17T10:02:47.558Z,-3.80
2022-12-17T10:05:47.444Z,-3.80
2022-12-17T10:08:36.475Z,-3.80
2022-12-17T10:11:41.931Z,-3.60
2022-12-17T10:14:40.051Z,-3.60
2022-12-17T10:17:40.922Z,-3.60
2022-12-17T10:21:11.610Z,-3.60
2022-12-17T10:23:56.946Z,-3.60
2022-12-17T10:26:45.994Z,-3.80
2022-12-17T10:29:34.929Z,-3.70
2022-12-17T10:32:35.522Z,-3.60
2022-12-17T10:35:45.307Z,-3.80
2022-12-17T10:38:47.315Z,-3.70
2022-12-17T10:41:47.510Z,-3.60
2022-12-17T10:44:49.607Z,-3.60
2022-12-17T10:47:37.512Z,-3.70
2022-12-17T10:50:33.635Z,-3.60
2022-12-17T10:53:20.547Z,-3.50
2022-12-17T10:56:08.625Z,-3.50
2022-12-17T10:58:54.939Z,-3.60
2022-12-17T11:01:42.886Z,-3.40
2022-12-17T11:04:49.217Z,-3.40
2022-12-17T11:07:56.680Z,-3.60
2022-12-17T11:10:45.026Z,-3.60
2022-12-17T11:13:49.511Z,-3.80
2022-12-17T11:17:08.255Z,-3.50
2022-12-17T11:20:16.350Z,-3.60
2022-12-17T11:23:03.720Z,-3.40
2022-12-17T11:26:11.227Z,-3.60
2022-12-17T11:28:57.154Z,-3.60
2022-12-17T11:32:15.013Z,-3.50
2022-12-17T11:35:21.433Z,-3.40
2022-12-17T11:38:27.580Z,-3.50
2022-12-17T11:41:46.612Z,-3.60
2022-12-17T11:44:56.985Z,-3.70
2022-12-17T11:47:49.365Z,-3.60
2022-12-17T11:50:45.901Z,-3.60
2022-12-17T11:53:31.367Z,-3.60
2022-12-17T11:56:46.308Z,-3.60
2022-12-17T11:59:55.939Z,-3.50
2022-12-17T12:03:12.686Z,-3.60
2022-12-17T12:06:41.677Z,-3.60
2022-12-17T12:09:35.966Z,-3.60
2022-12-17T12:12:49.512Z,-3.50
2022-12-17T12:15:55.027Z,-3.50
2022-12-17T12:19:11.254Z,-3.60
2022-12-17T12:21:58.502Z,-3.60
2022-12-17T12:25:18.818Z,-3.50
2022-12-17T12:28:32.052Z,-3.60
2022-12-17T12:31:44.837Z,-3.50
2022-12-17T12:34:38.428Z,-3.60
2022-12-17T12:37:24.894Z,-3.70
2022-12-17T12:40:19.877Z,-3.60
2022-12-17T12:43:08.130Z,-3.60
2022-12-17T12:46:04.417Z,-3.50
2022-12-17T12:48:59.453Z,-3.50
2022-12-17T12:51:52.386Z,-3.40
2022-12-17T12:54:48.716Z,-3.40
2022-12-17T12:57:52.617Z,-3.40
2022-12-17T13:00:49.565Z,-3.50
2022-12-17T13:03:43.274Z,-3.50
2022-12-17T13:06:11.845Z,-3.50
2022-12-17T13:08:39.431Z,-3.70
2022-12-17T13:11:29.019Z,-3.70
2022-12-17T13:14:01.381Z,-3.80
2022-12-17T13:16:47.140Z,-3.70
2022-12-17T13:19:39.360Z,-3.70
2022-12-17T13:22:33.662Z,-3.70
2022-12-17T13:25:16.443Z,-3.80
2022-12-17T13:27:43.852Z,-3.80
2022-12-17T13:30:22.645Z,-3.80
2022-12-17T13:33:20.327Z,-3.80
2022-12-17T13:35:53.019Z,-3.80
2022-12-17T13:38:20.023Z,-3.90
2022-12-17T13:41:11.129Z,-3.80
2022-12-17T13:43:54.089Z,-4.00
2022-12-17T13:46:29.318Z,-3.80
2022-12-17T13:48:59.141Z,-3.70
2022-12-17T13:51:30.201Z,-3.90
2022-12-17T13:54:01.909Z,-3.80
2022-12-17T13:56:32.271Z,-3.80
2022-12-17T13:59:07.995Z,-3.80
2022-12-17T14:01:44.988Z,-3.70
2022-12-17T14:04:37.361Z,-3.90
2022-12-17T14:07:06.099Z,-4.00
2022-12-17T14:09:39.549Z,-3.90
2022-12-17T14:12:23.516Z,-3.80
2022-12-17T14:14:54.351Z,-3.80
2022-12-17T14:17:43.308Z,-3.90
2022-12-17T14:20:23.198Z,-3.80
2022-12-17T14:22:53.834Z,-3.90
2022-12-17T14:25:23.749Z,-3.90
2022-12-17T14:28:00.566Z,-4.00
2022-12-17T14:30:42.897Z,-4.00
2022-12-17T14:33:47.816Z,-4.00
2022-12-17T14:36:24.086Z,-4.00
2022-12-17T14:39:02.785Z,-3.90
2022-12-17T14:41:55.598Z,-3.90
2022-12-17T14:44:28.659Z,-4.00
2022-12-17T14:47:11.409Z,-4.00
2022-12-17T14:49:50.895Z,-4.20
2022-12-17T14:52:40.030Z,-4.10
2022-12-17T14:55:25.024Z,-4.00
2022-12-17T14:57:53.375Z,-4.20
2022-12-17T15:00:21.134Z,-4.20
2022-12-17T15:02:54.509Z,-4.10
2022-12-17T15:05:21.549Z,-4.10
2022-12-17T15:07:48.522Z,-4.30
2022-12-17T15:10:20.582Z,-4.20
2022-12-17T15:12:48.854Z,-4.20
2022-12-17T15:15:17.040Z,-4.10
2022-12-17T15:17:44.165Z,-4.10
2022-12-17T15:20:17.442Z,-4.10
2022-12-17T15:22:44.805Z,-4.20
2022-12-17T15:25:16.601Z,-4.30
2022-12-17T15:27:43.803Z,-4.20
2022-12-17T15:30:15.173Z,-4.10
2022-12-17T15:32:42.444Z,-4.00
2022-12-17T15:35:11.287Z,-4.00
2022-12-17T15:37:38.415Z,-4.00
2022-12-17T15:40:07.239Z,-4.00
2022-12-17T15:42:52.483Z,-4.10
2022-12-17T15:45:19.575Z,-4.10
2022-12-17T15:47:46.493Z,-4.10
2022-12-17T15:50:13.413Z,-4.20
2022-12-17T15:52:40.282Z,-4.10
2022-12-17T15:55:07.354Z,-4.10
2022-12-17T15:57:34.288Z,-4.10
2022-12-17T16:00:01.213Z,-4.10
2022-12-17T16:02:28.346Z,-4.10
2022-12-17T16:04:55.588Z,-4.00
2022-12-17T16:07:22.490Z,-4.10
2022-12-17T16:09:49.284Z,-4.30
2022-12-17T16:12:16.231Z,-4.20
2022-12-17T16:14:43.083Z,-4.40
2022-12-17T16:17:10.382Z,-4.20
2022-12-17T16:19:37.363Z,-4.20
2022-12-17T16:22:04.314Z,-4.30
2022-12-17T16:24:31.174Z,-4.20
2022-12-17T16:27:04.028Z,-4.20
2022-12-17T16:29:31.605Z,-4.10
2022-12-17T16:31:59.126Z,-4.10
2022-12-17T16:34:25.999Z,-4.20
2022-12-17T16:36:53.227Z,-4.30
2022-12-17T16:39:20.956Z,-4.30
2022-12-17T16:41:47.935Z,-4.20
2022-12-17T16:44:14.869Z,-4.00
2022-12-17T16:46:44.177Z,-4.00
2022-12-17T16:49:18.165Z,-4.00
2022-12-17T16:51:48.209Z,-3.90
2022-12-17T16:54:18.056Z,-4.00
2022-12-17T16:56:46.777Z,-4.20
2022-12-17T16:59:15.693Z,-4.20
2022-12-17T17:01:44.900Z,-4.10
2022-12-17T17:04:13.276Z,-4.00
2022-12-17T17:06:45.598Z,-4.10
2022-12-17T17:09:13.512Z,-4.30
2022-12-17T17:11:40.521Z,-4.20
2022-12-17T17:14:08.237Z,-4.20
2022-12-17T17:16:35.687Z,-4.20
2022-12-17T17:19:03.268Z,-4.10
2022-12-17T17:21:36.550Z,-4.10
2022-12-17T17:24:11.027Z,-4.20
2022-12-17T17:26:40.146Z,-4.20
2022-12-17T17:29:07.537Z,-4.00
2022-12-17T17:32:08.503Z,-4.00
2022-12-17T17:34:22.354Z,-4.10
2022-12-17T17:36:49.184Z,-4.10
2022-12-17T17:39:16.076Z,-4.00
2022-12-17T17:41:43.004Z,-4.00
2022-12-17T17:44:12.719Z,-4.00
2022-12-17T17:46:39.882Z,-4.00
2022-12-17T17:49:08.582Z,-4.00
2022-12-17T17:52:08.582Z,-4.10
2022-12-17T17:54:25.614Z,-4.00
2022-12-17T17:56:52.483Z,-4.10
2022-12-17T17:59:19.572Z,-4.10
2022-12-17T18:01:49.757Z,-4.20
2022-12-17T18:04:19.045Z,-4.20
2022-12-17T18:07:09.073Z,-4.30
2022-12-17T18:09:33.816Z,-4.40
2022-12-17T18:12:21.939Z,-4.50
2022-12-17T18:15:12.652Z,-4.50
2022-12-17T18:17:35.588Z,-4.40
2022-12-17T18:20:02.899Z,-4.30
2022-12-17T18:22:29.687Z,-4.30
2022-12-17T18:24:56.537Z,-4.40
2022-12-17T18:27:23.375Z,-4.30
2022-12-17T18:29:50.224Z,-4.40
2022-12-17T18:32:17.144Z,-4.40
2022-12-17T18:34:44.074Z,-4.40
2022-12-17T18:37:10.978Z,-4.50
2022-12-17T18:39:37.855Z,-4.40
2022-12-17T18:42:23.436Z,-4.40
2022-12-17T18:44:50.340Z,-4.40
2022-12-17T18:47:18.791Z,-4.40
2022-12-17T18:49:45.761Z,-4.40
2022-12-17T18:52:16.760Z,-4.60
2022-12-17T18:54:44.348Z,-4.60
2022-12-17T18:57:11.698Z,-4.50
2022-12-17T18:59:40.788Z,-4.30
2022-12-17T19:02:15.153Z,-4.50
2022-12-17T19:04:42.199Z,-4.40
2022-12-17T19:07:09.180Z,-4.50
2022-12-17T19:09:36.583Z,-4.50
2022-12-17T19:12:05.593Z,-4.50
2022-12-17T19:14:32.899Z,-4.30
2022-12-17T19:16:59.967Z,-4.50
2022-12-17T19:19:27.354Z,-4.50
2022-12-17T19:21:55.339Z,-4.30
2022-12-17T19:24:23.103Z,-4.40
2022-12-17T19:26:51.071Z,-4.50
2022-12-17T19:29:19.297Z,-4.40
2022-12-17T19:31:46.600Z,-4.40
2022-12-17T19:34:15.370Z,-4.30
2022-12-17T19:36:43.106Z,-4.30
2022-12-17T19:39:13.349Z,-4.30
2022-12-17T19:41:40.646Z,-4.40
2022-12-17T19:44:11.932Z,-4.40
2022-12-17T19:46:38.831Z,-4.30
2022-12-17T19:49:06.003Z,-4.30
2022-12-17T19:51:33.705Z,-4.40
2022-12-17T19:54:08.023Z,-4.50
2022-12-17T19:56:35.454Z,-4.50
2022-12-17T19:59:07.295Z,-4.50
2022-12-17T20:01:41.337Z,-4.50
2022-12-17T20:04:10.358Z,-4.40
2022-12-17T20:06:37.209Z,-4.50
2022-12-17T20:09:05.922Z,-4.50
2022-12-17T20:11:33.618Z,-4.50
2022-12-17T20:14:12.295Z,-4.50
2022-12-17T20:16:45.332Z,-4.60
2022-12-17T20:19:18.209Z,-4.70
2022-12-17T20:21:45.418Z,-4.70
2022-12-17T20:24:13.059Z,-4.50
2022-12-17T20:26:40.083Z,-4.40
2022-12-17T20:29:08.001Z,-4.40
2022-12-17T20:31:35.195Z,-4.40
2022-12-17T20:34:03.804Z,-4.40
2022-12-17T20:36:31.389Z,-4.50
2022-12-17T20:38:59.206Z,-4.50
2022-12-17T20:41:28.650Z,-4.40
2022-12-17T20:43:56.731Z,-4.50
2022-12-17T20:46:25.090Z,-4.50
2022-12-17T20:48:52.773Z,-4.40
2022-12-17T20:51:23.646Z,-4.40
2022-12-17T20:53:52.451Z,-4.30
2022-12-17T20:56:26.085Z,-4.30
2022-12-17T20:58:58.289Z,-4.30
2022-12-17T21:01:27.242Z,-4.20
2022-12-17T21:03:55.377Z,-4.20
2022-12-17T21:06:35.318Z,-4.20
2022-12-17T21:09:03.292Z,-4.20
2022-12-17T21:11:31.828Z,-4.20
2022-12-17T21:13:59.186Z,-4.20
2022-12-17T21:16:29.837Z,-4.10
2022-12-17T21:18:58.430Z,-4.10
2022-12-17T21:21:28.720Z,-4.10
2022-12-17T21:23:56.694Z,-4.00
2022-12-17T21:26:34.854Z,-4.00
2022-12-17T21:29:04.316Z,-4.00
2022-12-17T21:31:33.704Z,-4.00
2022-12-17T21:34:02.961Z,-3.90
2022-12-17T21:36:31.402Z,-3.90
2022-12-17T21:38:58.813Z,-3.80
2022-12-17T21:41:28.737Z,-3.70
2022-12-17T21:43:59.531Z,-3.70
2022-12-17T21:46:27.493Z,-3.70
2022-12-17T21:48:55.500Z,-3.70
2022-12-17T21:51:22.684Z,-3.70
2022-12-17T21:53:55.570Z,-3.60
2022-12-17T21:56:22.859Z,-3.60
2022-12-17T21:58:50.582Z,-3.60
2022-12-17T22:01:20.408Z,-3.50
2022-12-17T22:03:53.501Z,-3.50
2022-12-17T22:06:24.930Z,-3.50
2022-12-17T22:08:56.165Z,-3.50
2022-12-17T22:11:37.046Z,-3.40
2022-12-17T22:14:09.077Z,-3.40
2022-12-17T22:16:47.325Z,-3.50
2022-12-17T22:19:20.912Z,-3.50
2022-12-17T22:21:50.852Z,-3.50
2022-12-17T22:24:21.322Z,-3.50
2022-12-17T22:26:48.628Z,-3.40
2022-12-17T22:29:34.600Z,-3.40
2022-12-17T22:32:20.423Z,-3.40
2022-12-17T22:36:01.410Z,-3.50
2022-12-17T22:40:11.581Z,-3.40
2022-12-17T22:44:29.346Z,-3.40
2022-12-17T22:44:45.005Z,-3.40
2022-12-17T22:46:19.573Z,-3.40
2022-12-17T22:48:47.179Z,-3.40
2022-12-17T22:51:24.605Z,-3.40
2022-12-17T22:54:02.398Z,-3.50
2022-12-17T22:56:57.943Z,-3.50
2022-12-17T22:59:18.629Z,-3.50
2022-12-17T23:01:45.586Z,-3.50
2022-12-17T23:04:15.683Z,-3.50
2022-12-17T23:06:47.503Z,-3.50
2022-12-17T23:09:15.426Z,-3.60
2022-12-17T23:11:42.486Z,-3.60
2022-12-17T23:14:09.466Z,-3.60
2022-12-17T23:16:39.016Z,-3.60
2022-12-17T23:19:06.270Z,-3.70
2022-12-17T23:21:33.228Z,-3.70
2022-12-17T23:24:00.209Z,-3.70
2022-12-17T23:26:30.611Z,-3.80
2022-12-17T23:29:01.865Z,-3.80
2022-12-17T23:31:32.768Z,-3.70
2022-12-17T23:33:59.841Z,-3.70
2022-12-17T23:36:27.452Z,-3.70
2022-12-17T23:38:56.457Z,-3.80
2022-12-17T23:41:28.514Z,-3.80
2022-12-17T23:43:56.145Z,-3.80
2022-12-17T23:46:24.362Z,-4.00
2022-12-17T23:48:51.675Z,-3.90
2022-12-17T23:51:20.481Z,-3.80
2022-12-17T23:53:47.758Z,-4.10
2022-12-17T23:56:17.749Z,-4.10
2022-12-17T23:58:46.587Z,-4.00
